Time;durP1;ratioP1;P1;durP2;ratioP2;P2;SDS_P1;SDS_P2;PMS_P1;PMS_P2;Temp;Humidity;BMP_temperature;BMP_pressure;BME280_temperature;BME280_humidity;BME280_pressure;Samples;Min_cycle;Max_cycle;Signal;HPM_P1;HPM_P2
2022/12/06 00:31:14;;;;;;;5.63;4.17;;;2.60;99.90;;;;;;5292365;23;20506;-80
2022/12/06 00:33:41;;;;;;;5.83;4.47;;;2.50;99.90;;;;;;5023043;28;20526;-84
2022/12/06 00:36:12;;;;;;;7.50;4.30;;;2.50;99.90;;;;;;5021791;28;20536;-83
2022/12/06 00:38:39;;;;;;;4.70;4.20;;;2.40;99.90;;;;;;5020053;28;20447;-82
2022/12/06 00:41:07;;;;;;;4.73;4.30;;;2.40;99.90;;;;;;5035030;28;20970;-71
2022/12/06 00:43:36;;;;;;;7.40;4.40;;;2.20;99.90;;;;;;5032405;28;20447;-73
2022/12/06 00:46:06;;;;;;;6.60;5.20;;;2.10;99.90;;;;;;5031456;28;20513;-74
2022/12/06 00:48:35;;;;;;;8.40;6.77;;;2.10;99.90;;;;;;5031127;28;20456;-71
2022/12/06 00:51:05;;;;;;;8.20;5.80;;;2.10;99.90;;;;;;5030014;28;20458;-71
2022/12/06 00:53:33;;;;;;;8.80;6.20;;;2.20;99.90;;;;;;5030494;28;20492;-71
2022/12/06 00:56:00;;;;;;;9.00;6.20;;;2.10;99.90;;;;;;5031151;28;20532;-71
2022/12/06 00:58:28;;;;;;;6.90;5.43;;;2.10;99.90;;;;;;5030665;28;20558;-71
2022/12/06 01:00:55;;;;;;;9.27;6.23;;;2.10;99.90;;;;;;5030479;28;20455;-71
2022/12/06 01:03:23;;;;;;;5.07;4.60;;;2.10;99.90;;;;;;5030403;28;20555;-71
2022/12/06 01:05:52;;;;;;;6.33;5.63;;;2.00;99.90;;;;;;5030614;28;20455;-72
2022/12/06 01:08:22;;;;;;;8.23;5.90;;;2.10;99.90;;;;;;5029725;28;20474;-72
2022/12/06 01:10:54;;;;;;;8.13;6.30;;;2.10;99.90;;;;;;5030401;28;20485;-71
2022/12/06 01:13:21;;;;;;;9.00;6.10;;;2.30;99.90;;;;;;5030458;28;20492;-71
2022/12/06 01:15:48;;;;;;;7.30;6.40;;;2.40;99.90;;;;;;5030153;28;21007;-72
2022/12/06 01:18:16;;;;;;;8.07;6.50;;;2.20;99.90;;;;;;5030517;28;20521;-71
2022/12/06 01:20:46;;;;;;;9.50;6.53;;;2.10;99.90;;;;;;5030974;28;20490;-72
2022/12/06 01:23:18;;;;;;;10.90;6.60;;;2.10;99.90;;;;;;5029295;28;20463;-71
2022/12/06 01:25:53;;;;;;;10.30;6.10;;;2.10;99.90;;;;;;5029074;28;20470;-72
2022/12/06 01:28:20;;;;;;;9.00;6.07;;;2.10;99.90;;;;;;5029885;28;20462;-72
2022/12/06 01:30:47;;;;;;;8.73;6.57;;;2.10;99.90;;;;;;5030120;28;20505;-72
2022/12/06 01:33:14;;;;;;;7.70;5.43;;;2.10;99.90;;;;;;5029443;28;20484;-71
2022/12/06 01:35:48;;;;;;;8.17;6.40;;;2.10;99.90;;;;;;5029768;28;20516;-71
2022/12/06 01:38:17;;;;;;;7.77;5.53;;;2.10;99.90;;;;;;5029291;28;20459;-71
2022/12/06 01:40:47;;;;;;;11.03;5.67;;;2.30;99.90;;;;;;5029685;28;20537;-71
2022/12/06 01:43:35;;;;;;;9.50;5.37;;;2.20;99.90;;;;;;5030115;28;20447;-71
2022/12/06 01:46:12;;;;;;;8.00;5.50;;;2.20;99.90;;;;;;5028916;28;20550;-71
2022/12/06 01:48:41;;;;;;;6.90;5.43;;;2.20;99.90;;;;;;5033836;28;20487;-72
2022/12/06 01:51:11;;;;;;;11.77;5.97;;;2.00;99.90;;;;;;5032142;28;20455;-71
2022/12/06 01:53:44;;;;;;;8.10;5.37;;;2.00;99.90;;;;;;5029227;28;20494;-70
2022/12/06 01:56:11;;;;;;;9.23;5.60;;;2.10;99.90;;;;;;5028493;28;20451;-71
2022/12/06 01:58:44;;;;;;;7.50;6.30;;;2.10;99.90;;;;;;5029431;28;20486;-71
2022/12/06 02:01:12;;;;;;;6.83;5.73;;;1.90;99.90;;;;;;5029297;28;20485;-71
2022/12/06 02:03:41;;;;;;;9.07;6.63;;;1.80;99.90;;;;;;5029080;28;20486;-71
2022/12/06 02:06:10;;;;;;;10.57;6.47;;;1.70;99.90;;;;;;5028736;28;20924;-71
2022/12/06 02:08:39;;;;;;;7.87;5.67;;;1.60;99.90;;;;;;5028887;28;20458;-71
2022/12/06 02:11:15;;;;;;;10.27;7.80;;;1.70;99.90;;;;;;5029222;28;20467;-71
2022/12/06 02:13:47;;;;;;;10.27;7.27;;;1.70;99.90;;;;;;5027848;28;20486;-71
2022/12/06 02:16:25;;;;;;;11.57;7.30;;;1.70;99.90;;;;;;5028718;28;20538;-70
2022/12/06 02:21:48;;;;;;;8.50;6.40;;;2.20;99.90;;;;;;5028603;28;20454;-71
2022/12/06 02:24:43;;;;;;;8.57;6.27;;;1.70;99.90;;;;;;5028889;28;20821;-71
2022/12/06 02:27:37;;;;;;;12.37;7.20;;;1.80;99.90;;;;;;5027662;28;20459;-71
2022/12/06 02:30:09;;;;;;;11.17;6.97;;;1.80;99.90;;;;;;5027534;28;21141;-70
2022/12/06 02:32:57;;;;;;;8.10;5.97;;;1.80;99.90;;;;;;5028705;28;20461;-71
2022/12/06 02:35:32;;;;;;;9.10;5.60;;;1.90;99.90;;;;;;5028302;28;20451;-71
2022/12/06 02:38:06;;;;;;;8.87;7.57;;;2.00;99.90;;;;;;5028576;28;20508;-70
2022/12/06 02:40:39;;;;;;;9.90;7.73;;;1.90;99.90;;;;;;5028465;28;20465;-70
2022/12/06 02:45:56;;;;;;;12.10;6.83;;;1.80;99.90;;;;;;5027005;28;20554;-70
2022/12/06 02:48:26;;;;;;;12.97;6.83;;;1.90;99.90;;;;;;5028477;28;20470;-72
2022/12/06 02:50:57;;;;;;;10.03;6.97;;;2.00;99.90;;;;;;5027576;28;20451;-71
2022/12/06 02:53:28;;;;;;;11.77;7.40;;;2.00;99.90;;;;;;5028115;28;20518;-70
2022/12/06 02:55:56;;;;;;;9.67;6.87;;;1.90;99.90;;;;;;5028175;28;20576;-71
2022/12/06 02:58:27;;;;;;;13.30;7.27;;;1.80;99.90;;;;;;5028292;28;20461;-70
2022/12/06 03:01:00;;;;;;;13.60;9.43;;;1.80;99.90;;;;;;5028725;28;20542;-72
2022/12/06 03:03:49;;;;;;;11.00;7.37;;;1.80;99.90;;;;;;5026893;28;20810;-71
2022/12/06 03:06:39;;;;;;;12.33;6.80;;;2.10;99.90;;;;;;5027989;28;20469;-70
2022/12/06 03:09:18;;;;;;;10.43;6.70;;;2.10;99.90;;;;;;5028459;28;20450;-73
2022/12/06 03:11:58;;;;;;;11.03;6.80;;;2.20;99.90;;;;;;5028261;28;20461;-71
2022/12/06 03:14:37;;;;;;;9.00;6.27;;;2.10;99.90;;;;;;5027844;28;20489;-71
2022/12/06 03:17:16;;;;;;;10.73;6.87;;;2.10;99.90;;;;;;5027932;28;20510;-72
2022/12/06 03:19:51;;;;;;;9.83;7.43;;;1.80;99.90;;;;;;5027125;28;20515;-71
2022/12/06 03:22:28;;;;;;;12.10;7.20;;;1.80;99.90;;;;;;5028012;28;20451;-72
2022/12/06 03:25:00;;;;;;;12.13;7.00;;;1.60;99.90;;;;;;5027285;28;20463;-71
2022/12/06 03:27:29;;;;;;;9.57;7.67;;;1.60;99.90;;;;;;5028218;28;20466;-71
2022/12/06 03:30:03;;;;;;;10.67;7.37;;;1.60;99.90;;;;;;5027667;28;20513;-71
2022/12/06 03:32:38;;;;;;;10.47;7.13;;;1.50;99.90;;;;;;5027962;28;20552;-72
2022/12/06 03:35:11;;;;;;;12.20;7.67;;;1.40;99.90;;;;;;5010288;28;20502;-72
2022/12/06 03:37:41;;;;;;;10.63;6.90;;;1.40;99.90;;;;;;5028212;28;20469;-72
2022/12/06 03:40:18;;;;;;;14.00;8.40;;;1.40;99.90;;;;;;5028079;28;20458;-72
2022/12/06 03:42:50;;;;;;;12.53;8.20;;;1.30;99.90;;;;;;5028184;28;20462;-72
2022/12/06 03:45:19;;;;;;;12.40;7.50;;;1.40;99.90;;;;;;5027884;28;20961;-72
2022/12/06 03:47:53;;;;;;;12.27;7.70;;;1.30;99.90;;;;;;5028049;28;20549;-71
2022/12/06 03:50:28;;;;;;;12.43;7.80;;;1.30;99.90;;;;;;5028352;28;20511;-73
2022/12/06 03:53:02;;;;;;;14.50;8.77;;;1.40;99.90;;;;;;5030458;28;20505;-72
2022/12/06 03:55:30;;;;;;;11.07;8.20;;;1.50;99.90;;;;;;5028217;28;20459;-71
2022/12/06 03:57:57;;;;;;;12.97;9.40;;;1.40;99.90;;;;;;5028202;28;20481;-70
2022/12/06 04:00:24;;;;;;;13.27;8.00;;;1.00;99.90;;;;;;5028625;28;20467;-71
2022/12/06 04:02:52;;;;;;;13.90;9.10;;;1.40;99.90;;;;;;5031578;28;20534;-75
2022/12/06 04:05:19;;;;;;;15.50;9.07;;;1.30;99.90;;;;;;5031833;28;20453;-71
2022/12/06 04:07:48;;;;;;;12.60;8.60;;;1.30;99.90;;;;;;5031620;28;20482;-72
2022/12/06 04:10:15;;;;;;;16.67;8.37;;;1.50;99.90;;;;;;5035187;28;20482;-77
2022/12/06 04:13:00;;;;;;;11.63;8.30;;;1.60;99.90;;;;;;5032104;28;20468;-72
2022/12/06 04:15:30;;;;;;;15.43;8.67;;;1.60;99.90;;;;;;5033975;28;20447;-71
2022/12/06 04:18:14;;;;;;;10.33;7.60;;;1.50;99.90;;;;;;5033411;28;20444;-71
2022/12/06 04:23:31;;;;;;;8.20;7.27;;;1.50;99.90;;;;;;5032876;28;20538;-71
2022/12/06 04:25:58;;;;;;;14.60;6.97;;;1.50;99.90;;;;;;5031010;28;20443;-71
2022/12/06 04:39:24;;;;;;;13.80;9.03;;;1.40;99.90;;;;;;5030852;28;20941;-71
2022/12/06 04:44:35;;;;;;;10.63;6.87;;;1.40;99.90;;;;;;5027850;28;20540;-72
2022/12/06 04:47:02;;;;;;;11.13;6.93;;;1.30;99.90;;;;;;5024451;28;20572;-72
2022/12/06 04:49:29;;;;;;;10.00;7.43;;;1.10;99.90;;;;;;5020958;28;20457;-72
2022/12/06 04:51:56;;;;;;;10.00;6.20;;;1.20;99.90;;;;;;5020412;28;20440;-71
2022/12/06 04:54:25;;;;;;;11.57;7.70;;;1.20;99.90;;;;;;5017884;28;20491;-72
2022/12/06 04:56:52;;;;;;;14.00;7.67;;;1.10;99.90;;;;;;5021963;28;20447;-71
2022/12/06 04:59:20;;;;;;;13.60;8.03;;;1.10;99.90;;;;;;5029541;28;20474;-73
2022/12/06 05:01:47;;;;;;;13.10;7.13;;;1.10;99.90;;;;;;5029460;28;20474;-72
2022/12/06 05:04:14;;;;;;;10.47;6.40;;;1.30;99.90;;;;;;5030327;28;20545;-72
2022/12/06 05:06:41;;;;;;;10.97;7.03;;;1.30;99.90;;;;;;5030234;28;20553;-72
2022/12/06 05:09:08;;;;;;;14.13;7.70;;;1.00;99.90;;;;;;5030179;28;20451;-72
2022/12/06 05:11:36;;;;;;;13.17;7.67;;;0.90;99.90;;;;;;5029956;28;20458;-72
2022/12/06 05:14:03;;;;;;;15.20;7.70;;;0.90;99.90;;;;;;5029097;28;20582;-70
2022/12/06 05:16:30;;;;;;;14.70;8.83;;;0.90;99.90;;;;;;5029879;28;20450;-72
2022/12/06 05:18:59;;;;;;;12.00;8.07;;;1.10;99.90;;;;;;5030150;28;20533;-72
2022/12/06 05:21:26;;;;;;;15.40;8.50;;;1.10;99.90;;;;;;5030213;28;20450;-75
2022/12/06 05:23:55;;;;;;;13.73;9.20;;;1.00;99.90;;;;;;5030029;28;20461;-75
2022/12/06 05:26:25;;;;;;;17.30;9.80;;;2.00;99.90;;;;;;5029160;28;20470;-75
2022/12/06 05:28:53;;;;;;;19.27;9.57;;;0.90;99.90;;;;;;5029698;28;20474;-74
2022/12/06 05:31:21;;;;;;;14.63;9.73;;;0.30;99.90;;;;;;5028324;28;20490;-75
2022/12/06 05:33:49;;;;;;;18.83;11.10;;;0.80;99.90;;;;;;5028810;28;20829;-72
2022/12/06 05:36:18;;;;;;;21.93;11.20;;;0.80;99.90;;;;;;5029349;28;20703;-71
2022/12/06 05:38:45;;;;;;;20.70;10.40;;;0.30;99.90;;;;;;5029327;28;20516;-72
2022/12/06 05:41:13;;;;;;;20.87;11.77;;;0.00;99.90;;;;;;5027154;28;20566;-71
2022/12/06 05:43:40;;;;;;;17.53;11.90;;;0.70;99.90;;;;;;5026712;28;20478;-72
2022/12/06 05:46:08;;;;;;;19.30;10.30;;;0.80;99.90;;;;;;5017288;28;20807;-75
2022/12/06 05:48:35;;;;;;;23.17;12.40;;;0.70;99.90;;;;;;5024934;28;21029;-74
2022/12/06 05:51:03;;;;;;;28.57;12.57;;;0.70;99.90;;;;;;5018668;28;21226;-73
2022/12/06 05:53:30;;;;;;;22.07;11.67;;;0.60;99.90;;;;;;5017048;28;20466;-74
2022/12/06 05:56:04;;;;;;;19.43;10.80;;;0.70;99.90;;;;;;5018423;28;20482;-74
2022/12/06 05:58:31;;;;;;;18.00;10.77;;;0.80;99.90;;;;;;5019402;28;20455;-74
2022/12/06 06:01:03;;;;;;;21.83;11.47;;;0.90;99.90;;;;;;5016843;28;20890;-75
2022/12/06 06:03:35;;;;;;;20.47;10.90;;;0.80;99.90;;;;;;5020945;28;20455;-75
2022/12/06 06:06:03;;;;;;;22.77;11.90;;;0.80;99.90;;;;;;5022864;28;20468;-75
2022/12/06 06:08:30;;;;;;;21.10;11.63;;;1.00;99.90;;;;;;5021581;28;20532;-75
2022/12/06 06:10:58;;;;;;;26.13;11.03;;;0.90;99.90;;;;;;5027091;28;20478;-75
2022/12/06 06:13:25;;;;;;;20.63;14.27;;;0.90;99.90;;;;;;5026666;28;20455;-76
2022/12/06 06:15:52;;;;;;;22.57;11.63;;;0.70;99.90;;;;;;5018246;28;20478;-76
2022/12/06 06:18:20;;;;;;;21.03;12.17;;;0.90;99.90;;;;;;5019844;28;20810;-75
2022/12/06 06:20:53;;;;;;;20.47;12.03;;;1.00;99.90;;;;;;5019095;28;20452;-74
2022/12/06 06:23:25;;;;;;;19.33;11.03;;;1.00;99.90;;;;;;5020447;28;20472;-76
2022/12/06 06:25:53;;;;;;;24.47;12.57;;;1.10;99.90;;;;;;5026489;28;20473;-75
2022/12/06 06:28:20;;;;;;;21.53;12.07;;;0.90;99.90;;;;;;5020596;28;20458;-71
2022/12/06 06:30:47;;;;;;;23.93;11.70;;;1.00;99.90;;;;;;5020810;28;21006;-70
2022/12/06 06:33:16;;;;;;;20.93;11.80;;;1.00;99.90;;;;;;5019019;28;20475;-71
2022/12/06 06:35:44;;;;;;;23.90;12.43;;;1.00;99.90;;;;;;5027115;28;20497;-72
2022/12/06 06:38:12;;;;;;;23.10;12.60;;;1.10;99.90;;;;;;5026943;28;20840;-72
2022/12/06 06:40:39;;;;;;;28.73;13.60;;;1.00;99.90;;;;;;5029374;28;20481;-72
2022/12/06 06:51:27;;;;;;;23.13;12.10;;;1.30;99.90;;;;;;5023694;28;20518;-75
2022/12/06 06:53:55;;;;;;;21.27;12.63;;;1.30;99.90;;;;;;5027552;28;20493;-75
2022/12/06 06:56:22;;;;;;;20.70;11.43;;;1.50;99.90;;;;;;5008271;28;20454;-74
2022/12/06 06:58:49;;;;;;;19.57;12.13;;;1.40;99.90;;;;;;5008419;28;20471;-75
2022/12/06 07:01:18;;;;;;;21.13;13.10;;;1.40;99.90;;;;;;5007894;28;20439;-73
2022/12/06 07:03:45;;;;;;;21.23;11.23;;;2.80;99.90;;;;;;5008140;28;20472;-75
2022/12/06 07:06:12;;;;;;;20.63;13.67;;;0.80;99.90;;;;;;5008271;28;21055;-74
2022/12/06 07:08:41;;;;;;;20.93;11.97;;;2.10;99.90;;;;;;5008336;28;20450;-74
2022/12/06 07:11:10;;;;;;;23.13;12.43;;;1.60;99.90;;;;;;5023635;28;20489;-75
2022/12/06 07:13:39;;;;;;;21.00;11.63;;;1.50;99.90;;;;;;5027681;28;20454;-74
2022/12/06 07:16:08;;;;;;;21.90;12.80;;;1.60;99.90;;;;;;5027975;28;20494;-74
2022/12/06 07:18:35;;;;;;;19.50;12.13;;;1.70;99.90;;;;;;5027673;28;20459;-74
2022/12/06 07:21:04;;;;;;;21.20;11.50;;;1.80;99.90;;;;;;5028276;28;20535;-74
2022/12/06 07:23:31;;;;;;;20.17;11.50;;;2.00;99.90;;;;;;5028520;28;20458;-74
2022/12/06 07:26:03;;;;;;;20.37;12.27;;;1.70;99.90;;;;;;5027590;28;20534;-74
2022/12/06 07:28:32;;;;;;;22.03;11.63;;;1.60;99.90;;;;;;5026914;28;20504;-75
2022/12/06 07:31:06;;;;;;;22.40;12.00;;;0.70;99.90;;;;;;5027760;28;20463;-74
2022/12/06 07:33:33;;;;;;;21.70;10.57;;;1.70;99.90;;;;;;5027476;28;20523;-74
2022/12/06 07:36:00;;;;;;;21.70;11.40;;;1.30;99.90;;;;;;5027641;28;20501;-74
2022/12/06 07:38:27;;;;;;;19.77;10.87;;;1.60;99.90;;;;;;5027517;28;20494;-74
2022/12/06 07:40:54;;;;;;;19.77;11.63;;;1.80;99.90;;;;;;5027521;28;20486;-75
2022/12/06 07:46:12;;;;;;;20.20;10.30;;;1.60;99.90;;;;;;5031313;28;20478;-74
2022/12/06 07:48:43;;;;;;;18.37;11.37;;;1.40;99.90;;;;;;5031284;28;20877;-74
2022/12/06 07:51:14;;;;;;;17.60;10.47;;;1.30;99.90;;;;;;5031503;28;20442;-75
2022/12/06 07:53:41;;;;;;;20.17;11.73;;;1.60;99.90;;;;;;5031523;28;20450;-75
2022/12/06 07:56:09;;;;;;;18.10;11.60;;;2.20;99.90;;;;;;5031058;28;20475;-75
2022/12/06 07:58:36;;;;;;;16.10;9.93;;;1.80;99.90;;;;;;5031476;28;20546;-76
2022/12/06 08:01:03;;;;;;;19.87;10.70;;;1.80;99.90;;;;;;5030642;28;20549;-74
2022/12/06 08:03:32;;;;;;;19.07;10.60;;;2.80;99.90;;;;;;5031428;28;20545;-75
2022/12/06 08:05:59;;;;;;;16.13;10.97;;;1.70;99.90;;;;;;5031079;28;20443;-74
2022/12/06 08:08:26;;;;;;;19.90;12.20;;;1.70;99.90;;;;;;5031513;28;20516;-75
2022/12/06 08:10:53;;;;;;;20.67;11.90;;;1.90;99.90;;;;;;5031375;28;21297;-74
2022/12/06 08:13:20;;;;;;;24.03;9.57;;;1.90;99.90;;;;;;5031383;28;20534;-74
2022/12/06 08:15:47;;;;;;;19.40;11.23;;;2.00;99.90;;;;;;5031434;28;20494;-74
2022/12/06 08:18:13;;;;;;;20.67;12.70;;;2.10;99.90;;;;;;5030027;28;20459;-74
2022/12/06 08:20:42;;;;;;;21.07;12.63;;;2.20;99.90;;;;;;5031103;28;20451;-73
2022/12/06 08:23:09;;;;;;;22.30;12.07;;;2.30;99.90;;;;;;5031519;28;20455;-75
2022/12/06 08:25:38;;;;;;;20.80;11.40;;;2.20;99.90;;;;;;5030652;28;20541;-74
2022/12/06 08:28:07;;;;;;;20.30;11.90;;;2.40;99.90;;;;;;5030977;28;20466;-75
2022/12/06 08:30:35;;;;;;;22.93;12.33;;;2.50;99.90;;;;;;5030766;28;20463;-74
2022/12/06 08:33:02;;;;;;;17.27;10.30;;;2.50;99.90;;;;;;5029989;28;20475;-74
2022/12/06 08:35:29;;;;;;;19.70;10.80;;;2.40;99.90;;;;;;5030961;28;20486;-74
2022/12/06 08:37:57;;;;;;;15.80;9.73;;;2.60;99.90;;;;;;5030592;28;20537;-74
2022/12/06 08:40:24;;;;;;;18.43;11.47;;;1.90;99.90;;;;;;5030984;28;20540;-75
2022/12/06 08:42:51;;;;;;;19.00;11.67;;;2.70;99.90;;;;;;5030640;28;20451;-75
2022/12/06 08:45:18;;;;;;;22.07;9.60;;;3.30;99.90;;;;;;5030117;28;20966;-75
2022/12/06 08:47:45;;;;;;;19.80;9.90;;;2.60;99.90;;;;;;5030657;28;20510;-75
2022/12/06 08:50:12;;;;;;;21.90;12.13;;;2.60;99.90;;;;;;5029921;28;20620;-75
2022/12/06 08:52:39;;;;;;;16.80;10.40;;;2.60;99.90;;;;;;5030667;28;20459;-75
2022/12/06 08:55:08;;;;;;;18.63;10.33;;;2.90;99.90;;;;;;5029988;28;20645;-74
2022/12/06 08:57:35;;;;;;;14.80;10.63;;;3.10;99.90;;;;;;5030194;28;20718;-74
2022/12/06 09:00:02;;;;;;;18.33;9.83;;;3.30;99.90;;;;;;5035831;28;20452;-76
2022/12/06 09:02:29;;;;;;;16.37;9.57;;;3.30;99.90;;;;;;5032656;28;20466;-75
2022/12/06 09:04:57;;;;;;;13.20;8.97;;;3.30;99.90;;;;;;5028992;28;20554;-74
2022/12/06 09:07:25;;;;;;;15.67;9.33;;;3.00;99.90;;;;;;5030269;28;20915;-75
2022/12/06 09:09:53;;;;;;;18.60;10.07;;;3.30;99.90;;;;;;5032767;28;20559;-75
2022/12/06 09:12:22;;;;;;;12.87;8.83;;;2.90;99.90;;;;;;5035675;28;20448;-74
2022/12/06 09:14:49;;;;;;;16.93;9.07;;;3.00;99.90;;;;;;5032511;28;21096;-75
2022/12/06 09:17:16;;;;;;;17.00;9.27;;;3.20;99.90;;;;;;5030566;28;20499;-74
2022/12/06 09:19:43;;;;;;;14.70;8.47;;;3.20;99.90;;;;;;5029954;28;20544;-74
2022/12/06 09:22:10;;;;;;;14.17;7.57;;;3.30;99.90;;;;;;5028658;28;20543;-74
2022/12/06 09:24:37;;;;;;;13.67;8.10;;;3.30;99.90;;;;;;5029658;28;20447;-74
2022/12/06 09:27:04;;;;;;;9.87;8.37;;;3.00;99.90;;;;;;5029810;28;20451;-74
2022/12/06 09:29:34;;;;;;;10.60;7.63;;;3.60;99.90;;;;;;5031269;28;20439;-75
2022/12/06 09:32:01;;;;;;;15.23;8.40;;;3.20;99.90;;;;;;5034482;28;20694;-74
2022/12/06 09:34:28;;;;;;;15.37;8.53;;;2.90;99.90;;;;;;5033495;28;21015;-75
2022/12/06 09:37:01;;;;;;;14.60;7.53;;;3.30;99.90;;;;;;5030922;28;20725;-74
2022/12/06 09:39:32;;;;;;;10.03;6.97;;;3.20;99.90;;;;;;5033613;28;20448;-75
2022/12/06 09:42:21;;;;;;;13.27;8.43;;;3.40;99.90;;;;;;5033047;28;20443;-75
2022/12/06 09:45:10;;;;;;;12.80;7.10;;;3.30;99.90;;;;;;5029359;28;20476;-77
2022/12/06 09:47:52;;;;;;;12.07;7.40;;;3.20;99.90;;;;;;5029570;28;21142;-75
2022/12/06 09:50:26;;;;;;;9.17;6.37;;;3.30;99.90;;;;;;5029708;28;20538;-75
2022/12/06 09:53:12;;;;;;;9.70;7.20;;;3.20;99.90;;;;;;5029239;28;20776;-75
2022/12/06 09:55:51;;;;;;;15.13;7.67;;;3.20;99.90;;;;;;5009494;28;20563;-75
2022/12/06 09:58:31;;;;;;;8.07;5.70;;;3.10;99.90;;;;;;5010307;28;20498;-75
2022/12/06 10:01:10;;;;;;;17.40;7.30;;;3.20;99.90;;;;;;5010434;28;20539;-75
2022/12/06 10:03:53;;;;;;;13.10;8.77;;;4.00;99.90;;;;;;5011320;28;20472;-75
2022/12/06 10:06:23;;;;;;;9.97;6.83;;;2.90;99.90;;;;;;5010226;28;20475;-75
2022/12/06 10:09:03;;;;;;;16.27;8.37;;;2.90;99.90;;;;;;5010977;28;20459;-75
2022/12/06 10:11:43;;;;;;;10.20;8.10;;;2.90;99.90;;;;;;5021399;28;20485;-74
2022/12/06 10:14:23;;;;;;;11.80;7.93;;;2.90;99.90;;;;;;5029772;28;20887;-75
2022/12/06 10:17:00;;;;;;;12.00;7.97;;;2.70;99.90;;;;;;5029468;28;20489;-74
2022/12/06 10:19:38;;;;;;;10.13;5.90;;;3.00;99.90;;;;;;5030354;28;20463;-75
2022/12/06 10:22:13;;;;;;;10.50;7.30;;;3.00;99.90;;;;;;5029346;28;20551;-75
2022/12/06 10:24:49;;;;;;;8.70;5.90;;;3.10;99.90;;;;;;5029207;28;20496;-75
2022/12/06 10:27:30;;;;;;;10.90;6.37;;;3.00;99.90;;;;;;5028967;28;20554;-75
2022/12/06 10:29:58;;;;;;;7.27;5.47;;;3.00;99.90;;;;;;5028718;28;20451;-75
2022/12/06 10:32:42;;;;;;;10.53;6.63;;;3.30;99.90;;;;;;5029809;28;20546;-75
2022/12/06 10:35:17;;;;;;;9.13;6.50;;;3.50;99.90;;;;;;5029250;28;20509;-74
2022/12/06 10:37:59;;;;;;;12.37;6.57;;;3.30;99.90;;;;;;5029275;28;20492;-74
2022/12/06 10:40:30;;;;;;;8.50;5.87;;;3.50;99.90;;;;;;5027926;28;20554;-74
2022/12/06 10:43:03;;;;;;;10.77;5.67;;;3.40;99.90;;;;;;5028490;28;20535;-73
2022/12/06 10:48:29;;;;;;;12.23;5.80;;;3.00;99.90;;;;;;5028486;28;20521;-75
2022/12/06 10:51:05;;;;;;;13.60;7.07;;;3.10;99.90;;;;;;5028247;28;20504;-74
2022/12/06 10:53:38;;;;;;;9.33;6.10;;;4.00;99.90;;;;;;5028339;28;20526;-75
2022/12/06 10:56:14;;;;;;;8.50;5.23;;;3.20;99.90;;;;;;5028155;28;20581;-75
2022/12/06 10:58:48;;;;;;;7.00;4.80;;;3.50;99.90;;;;;;5027450;28;20466;-74
2022/12/06 11:01:19;;;;;;;5.30;3.90;;;3.30;99.90;;;;;;5028653;28;20446;-75
2022/12/06 11:03:55;;;;;;;7.40;5.37;;;3.00;99.90;;;;;;5028397;28;20467;-75
2022/12/06 11:06:32;;;;;;;7.90;5.03;;;3.00;99.90;;;;;;5028566;28;20454;-74
2022/12/06 11:09:05;;;;;;;5.90;5.33;;;3.00;99.90;;;;;;5028784;28;20479;-75
2022/12/06 11:11:36;;;;;;;7.23;4.63;;;3.10;99.90;;;;;;5028652;28;20996;-74
2022/12/06 11:14:10;;;;;;;5.87;4.13;;;3.10;99.90;;;;;;5028434;28;20939;-74
2022/12/06 11:16:43;;;;;;;5.07;4.00;;;3.30;99.90;;;;;;5028700;28;20971;-75
2022/12/06 11:19:23;;;;;;;5.33;4.43;;;3.20;99.90;;;;;;5034006;28;20455;-75
2022/12/06 11:21:56;;;;;;;6.43;4.07;;;3.20;99.90;;;;;;5034053;28;20584;-75
2022/12/06 11:24:27;;;;;;;4.27;3.30;;;3.20;99.90;;;;;;5033403;28;20538;-75
2022/12/06 11:27:03;;;;;;;4.20;3.80;;;3.10;99.90;;;;;;5033588;28;20450;-74
2022/12/06 11:29:30;;;;;;;4.10;3.70;;;3.20;99.90;;;;;;5034035;28;20645;-76
2022/12/06 11:32:01;;;;;;;5.30;3.53;;;3.10;99.90;;;;;;5032312;28;20545;-75
2022/12/06 11:34:35;;;;;;;5.30;4.53;;;3.30;99.90;;;;;;5033660;28;20451;-74
2022/12/06 11:37:04;;;;;;;7.17;4.13;;;3.30;99.90;;;;;;5034700;28;20487;-76
2022/12/06 11:39:32;;;;;;;5.70;4.07;;;3.10;99.90;;;;;;5037541;28;20443;-76
2022/12/06 11:42:02;;;;;;;4.40;3.87;;;3.30;99.90;;;;;;5034074;28;20529;-76
2022/12/06 11:44:37;;;;;;;4.60;4.07;;;3.40;99.90;;;;;;5031717;28;20828;-75
2022/12/06 11:47:06;;;;;;;6.30;3.50;;;3.20;99.90;;;;;;5031940;28;20485;-75
2022/12/06 11:49:38;;;;;;;5.20;4.23;;;3.30;99.90;;;;;;5030183;28;20459;-76
2022/12/06 11:52:10;;;;;;;5.70;3.50;;;3.40;99.90;;;;;;5031685;28;20522;-75
2022/12/06 11:54:42;;;;;;;4.47;3.97;;;3.20;99.90;;;;;;5031385;28;20530;-75
2022/12/06 11:57:17;;;;;;;6.07;4.47;;;3.10;99.90;;;;;;5031791;28;20490;-75
2022/12/06 12:00:15;;;;;;;5.70;5.10;;;3.10;99.90;;;;;;5031758;28;20464;-75
2022/12/06 12:02:43;;;;;;;5.53;4.83;;;3.20;99.90;;;;;;5031421;28;20501;-75
2022/12/06 12:05:20;;;;;;;5.43;4.30;;;3.20;99.90;;;;;;5030169;28;20466;-75
2022/12/06 12:07:50;;;;;;;7.43;5.40;;;3.30;99.90;;;;;;5032610;28;20457;-76
2022/12/06 12:10:28;;;;;;;7.13;5.33;;;3.30;99.90;;;;;;5031092;28;20638;-74
2022/12/06 12:15:48;;;;;;;7.60;5.47;;;3.20;99.90;;;;;;5031798;28;20548;-74
2022/12/06 12:18:22;;;;;;;7.50;4.43;;;2.40;99.90;;;;;;5032459;28;20837;-74
2022/12/06 12:20:51;;;;;;;7.60;6.00;;;3.20;99.90;;;;;;5033223;28;20976;-76
2022/12/06 12:23:23;;;;;;;7.40;4.47;;;3.10;99.90;;;;;;5033038;28;20451;-75
2022/12/06 12:26:00;;;;;;;7.10;5.20;;;3.30;99.90;;;;;;5031842;28;20505;-74
2022/12/06 12:28:29;;;;;;;8.07;5.07;;;3.30;99.90;;;;;;5030402;28;20554;-71
2022/12/06 12:30:58;;;;;;;7.90;6.00;;;3.30;99.90;;;;;;5024892;28;20698;-72
2022/12/06 12:33:26;;;;;;;8.37;6.43;;;3.00;99.90;;;;;;5019871;28;20455;-72
2022/12/06 12:36:13;;;;;;;7.73;6.10;;;3.30;99.90;;;;;;5018576;28;21043;-73
2022/12/06 12:38:52;;;;;;;5.20;4.60;;;3.30;99.90;;;;;;5021031;28;20547;-74
2022/12/06 12:41:37;;;;;;;7.67;5.03;;;3.30;99.90;;;;;;5019201;28;20543;-73
2022/12/06 12:44:07;;;;;;;7.90;5.60;;;3.40;99.90;;;;;;5021691;28;20865;-74
2022/12/06 12:46:36;;;;;;;5.20;4.63;;;3.40;99.90;;;;;;5030785;28;20880;-74
2022/12/06 12:51:44;;;;;;;6.57;5.00;;;3.40;99.90;;;;;;5030396;23;20483;-77
2022/12/06 12:56:46;;;;;;;9.43;5.80;;;3.30;99.90;;;;;;6020772;23;20442;-88
2022/12/06 13:09:47;;;;;;;9.20;4.87;;;3.60;99.90;;;;;;5204995;23;20480;-89
2022/12/06 13:12:19;;;;;;;6.90;4.30;;;3.60;99.90;;;;;;4991729;28;20973;-90
2022/12/06 13:14:52;;;;;;;4.87;3.83;;;3.60;99.90;;;;;;5013713;28;20462;-87
2022/12/06 13:19:54;;;;;;;6.67;4.20;;;3.50;99.90;;;;;;5764496;23;20495;-90
2022/12/06 13:22:25;;;;;;;7.10;4.47;;;3.50;99.90;;;;;;5012022;28;20953;-88
2022/12/06 13:24:59;;;;;;;7.00;4.23;;;3.60;99.90;;;;;;5011254;28;20448;-90
2022/12/06 13:43:02;;;;;;;6.10;4.27;;;3.60;99.90;;;;;;5789045;23;20440;-85
2022/12/06 13:45:55;;;;;;;7.10;4.00;;;3.60;99.90;;;;;;5045075;28;20473;-84
2022/12/06 13:56:50;;;;;;;4.10;3.73;;;3.60;99.90;;;;;;5075584;23;20590;-87
2022/12/06 14:03:01;;;;;;;4.40;3.37;;;3.60;99.90;;;;;;5084175;23;20500;-90
2022/12/06 14:08:40;;;;;;;5.60;3.53;;;3.70;99.90;;;;;;5132596;23;20864;-88
2022/12/06 14:11:24;;;;;;;6.37;3.50;;;3.90;99.90;;;;;;5009720;28;20490;-87
2022/12/06 15:08:24;;;;;;;17.43;4.20;;;3.50;99.90;;;;;;5554388;23;20500;-80
2022/12/06 15:48:05;;;;;;;6.37;4.37;;;3.30;99.90;;;;;;5309072;23;20497;-77
2022/12/06 15:50:33;;;;;;;10.70;4.03;;;3.30;99.90;;;;;;4986981;28;20492;-77
2022/12/06 15:53:00;;;;;;;5.03;3.43;;;3.20;99.90;;;;;;4986984;28;20448;-76
2022/12/06 15:55:26;;;;;;;7.40;4.30;;;3.20;99.90;;;;;;4987649;28;20488;-76
2022/12/06 15:57:53;;;;;;;8.13;5.13;;;3.20;99.90;;;;;;4988237;28;20595;-77
2022/12/06 16:00:21;;;;;;;3.90;3.60;;;3.20;99.90;;;;;;4996145;28;20433;-76
2022/12/06 16:02:48;;;;;;;5.17;4.70;;;3.20;99.90;;;;;;5017387;28;20444;-80
2022/12/06 16:24:02;;;;;;;4.90;4.40;;;3.10;99.90;;;;;;5116962;23;20489;-80
2022/12/06 16:26:30;;;;;;;7.27;5.40;;;3.00;99.90;;;;;;4975463;29;20441;-80
2022/12/06 16:29:05;;;;;;;10.20;4.70;;;3.00;99.90;;;;;;4981687;29;20470;-79
2022/12/06 16:31:36;;;;;;;6.50;4.20;;;2.90;99.90;;;;;;4981576;29;20525;-81
2022/12/06 16:34:08;;;;;;;8.40;5.77;;;3.00;99.90;;;;;;4981923;29;20455;-81
2022/12/06 16:36:54;;;;;;;11.27;5.53;;;2.90;99.90;;;;;;4982378;29;20497;-79
2022/12/06 16:39:22;;;;;;;8.20;6.27;;;3.00;99.90;;;;;;4982171;29;20438;-82
2022/12/06 16:44:49;;;;;;;8.57;6.10;;;2.90;99.90;;;;;;5084063;23;20567;-76
2022/12/06 16:47:16;;;;;;;8.00;5.40;;;2.90;99.90;;;;;;4929001;29;20487;-80
2022/12/06 16:49:43;;;;;;;6.67;4.83;;;2.90;99.90;;;;;;4941274;28;20554;-76
2022/12/06 16:52:10;;;;;;;7.53;5.17;;;3.00;99.90;;;;;;4930426;29;20513;-75
2022/12/06 16:54:39;;;;;;;7.03;5.30;;;2.80;99.90;;;;;;4929446;29;20468;-75
2022/12/06 16:57:06;;;;;;;9.30;6.23;;;2.80;99.90;;;;;;4934023;29;20551;-80
2022/12/06 16:59:34;;;;;;;7.63;5.43;;;2.80;99.90;;;;;;4937084;29;20963;-77